sensor_id;sensor_type;location;lat;lon;timestamp;P1;durP1;ratioP1;P2;durP2;ratioP2
18659;SDS011;9459;50.254;19.014;2023-05-25T00:01:28;13.70;;;9.20;;
18659;SDS011;9459;50.254;19.014;2023-05-25T00:03:57;11.93;;;9.00;;
18659;SDS011;9459;50.254;19.014;2023-05-25T00:06:26;9.77;;;7.45;;
18659;SDS011;9459;50.254;19.014;2023-05-25T00:08:56;8.80;;;7.00;;
18659;SDS011;9459;50.254;19.014;2023-05-25T00:11:24;11.63;;;8.63;;
18659;SDS011;9459;50.254;19.014;2023-05-25T00:13:53;10.90;;;7.68;;
18659;SDS011;9459;50.254;19.014;2023-05-25T00:16:21;10.75;;;8.18;;
18659;SDS011;9459;50.254;19.014;2023-05-25T00:18:52;8.80;;;7.45;;
18659;SDS011;9459;50.254;19.014;2023-05-25T00:21:23;10.00;;;8.30;;
18659;SDS011;9459;50.254;19.014;2023-05-25T00:23:52;11.65;;;8.63;;
18659;SDS011;9459;50.254;19.014;2023-05-25T00:26:20;12.20;;;9.73;;
18659;SDS011;9459;50.254;19.014;2023-05-25T00:28:49;10.20;;;7.85;;
18659;SDS011;9459;50.254;19.014;2023-05-25T00:31:17;9.65;;;8.07;;
18659;SDS011;9459;50.254;19.014;2023-05-25T00:33:46;12.23;;;8.50;;
18659;SDS011;9459;50.254;19.014;2023-05-25T00:36:17;12.15;;;8.23;;
18659;SDS011;9459;50.254;19.014;2023-05-25T00:38:46;12.98;;;9.80;;
18659;SDS011;9459;50.254;19.014;2023-05-25T00:41:15;10.75;;;8.57;;
18659;SDS011;9459;50.254;19.014;2023-05-25T00:43:44;15.77;;;11.15;;
18659;SDS011;9459;50.254;19.014;2023-05-25T00:46:13;12.23;;;9.50;;
18659;SDS011;9459;50.254;19.014;2023-05-25T00:48:44;17.42;;;10.07;;
18659;SDS011;9459;50.254;19.014;2023-05-25T00:51:12;8.55;;;7.25;;
18659;SDS011;9459;50.254;19.014;2023-05-25T00:53:43;9.48;;;7.88;;
18659;SDS011;9459;50.254;19.014;2023-05-25T00:56:12;8.07;;;7.13;;
18659;SDS011;9459;50.254;19.014;2023-05-25T00:58:42;7.65;;;6.55;;
18659;SDS011;9459;50.254;19.014;2023-05-25T01:01:12;8.88;;;6.90;;
18659;SDS011;9459;50.254;19.014;2023-05-25T01:03:41;7.50;;;6.07;;
18659;SDS011;9459;50.254;19.014;2023-05-25T01:08:45;7.88;;;6.55;;
18659;SDS011;9459;50.254;19.014;2023-05-25T01:11:26;8.32;;;6.53;;
18659;SDS011;9459;50.254;19.014;2023-05-25T01:13:56;8.00;;;6.67;;
18659;SDS011;9459;50.254;19.014;2023-05-25T01:16:25;9.45;;;6.97;;
18659;SDS011;9459;50.254;19.014;2023-05-25T01:18:54;10.75;;;8.65;;
18659;SDS011;9459;50.254;19.014;2023-05-25T01:21:26;9.75;;;8.10;;
18659;SDS011;9459;50.254;19.014;2023-05-25T01:23:59;9.18;;;7.80;;
18659;SDS011;9459;50.254;19.014;2023-05-25T01:26:31;9.70;;;8.52;;
18659;SDS011;9459;50.254;19.014;2023-05-25T01:29:02;9.05;;;7.72;;
18659;SDS011;9459;50.254;19.014;2023-05-25T01:31:31;10.90;;;9.38;;
18659;SDS011;9459;50.254;19.014;2023-05-25T01:34:02;10.65;;;9.38;;
18659;SDS011;9459;50.254;19.014;2023-05-25T01:36:32;11.05;;;8.60;;
18659;SDS011;9459;50.254;19.014;2023-05-25T01:39:01;10.70;;;8.95;;
18659;SDS011;9459;50.254;19.014;2023-05-25T01:41:32;11.75;;;9.23;;
18659;SDS011;9459;50.254;19.014;2023-05-25T01:44:01;12.35;;;8.95;;
18659;SDS011;9459;50.254;19.014;2023-05-25T01:46:30;9.55;;;7.80;;
18659;SDS011;9459;50.254;19.014;2023-05-25T01:49:04;11.00;;;9.00;;
18659;SDS011;9459;50.254;19.014;2023-05-25T01:51:42;11.48;;;9.88;;
18659;SDS011;9459;50.254;19.014;2023-05-25T01:54:17;14.10;;;11.95;;
18659;SDS011;9459;50.254;19.014;2023-05-25T01:56:46;15.55;;;13.32;;
18659;SDS011;9459;50.254;19.014;2023-05-25T01:59:18;17.75;;;14.68;;
18659;SDS011;9459;50.254;19.014;2023-05-25T02:01:47;16.75;;;13.13;;
18659;SDS011;9459;50.254;19.014;2023-05-25T02:04:19;15.35;;;11.93;;
18659;SDS011;9459;50.254;19.014;2023-05-25T02:06:51;14.32;;;11.20;;
18659;SDS011;9459;50.254;19.014;2023-05-25T02:09:20;12.48;;;10.60;;
18659;SDS011;9459;50.254;19.014;2023-05-25T02:11:48;14.90;;;11.13;;
18659;SDS011;9459;50.254;19.014;2023-05-25T02:14:17;15.30;;;10.65;;
18659;SDS011;9459;50.254;19.014;2023-05-25T02:16:45;11.30;;;9.18;;
18659;SDS011;9459;50.254;19.014;2023-05-25T02:19:14;16.08;;;11.07;;
18659;SDS011;9459;50.254;19.014;2023-05-25T02:21:42;13.95;;;11.02;;
18659;SDS011;9459;50.254;19.014;2023-05-25T02:24:14;12.55;;;10.52;;
18659;SDS011;9459;50.254;19.014;2023-05-25T02:26:44;12.90;;;10.60;;
18659;SDS011;9459;50.254;19.014;2023-05-25T02:29:12;15.23;;;12.40;;
18659;SDS011;9459;50.254;19.014;2023-05-25T02:31:41;17.15;;;12.75;;
18659;SDS011;9459;50.254;19.014;2023-05-25T02:34:10;17.60;;;14.75;;
18659;SDS011;9459;50.254;19.014;2023-05-25T02:36:39;20.77;;;15.88;;
18659;SDS011;9459;50.254;19.014;2023-05-25T02:39:09;17.10;;;14.93;;
18659;SDS011;9459;50.254;19.014;2023-05-25T02:41:38;15.00;;;12.85;;
18659;SDS011;9459;50.254;19.014;2023-05-25T02:44:07;14.43;;;12.57;;
18659;SDS011;9459;50.254;19.014;2023-05-25T02:46:36;14.63;;;11.20;;
18659;SDS011;9459;50.254;19.014;2023-05-25T02:49:04;13.60;;;12.10;;
18659;SDS011;9459;50.254;19.014;2023-05-25T02:51:32;13.13;;;10.45;;
18659;SDS011;9459;50.254;19.014;2023-05-25T02:54:01;12.50;;;9.32;;
18659;SDS011;9459;50.254;19.014;2023-05-25T02:56:30;16.10;;;12.73;;
18659;SDS011;9459;50.254;19.014;2023-05-25T02:59:01;13.13;;;11.38;;
18659;SDS011;9459;50.254;19.014;2023-05-25T03:01:29;11.65;;;10.25;;
18659;SDS011;9459;50.254;19.014;2023-05-25T03:03:58;11.50;;;9.18;;
18659;SDS011;9459;50.254;19.014;2023-05-25T03:06:26;12.15;;;9.40;;
18659;SDS011;9459;50.254;19.014;2023-05-25T03:08:55;10.45;;;9.23;;
18659;SDS011;9459;50.254;19.014;2023-05-25T03:11:24;12.45;;;9.13;;
18659;SDS011;9459;50.254;19.014;2023-05-25T03:13:52;11.95;;;9.18;;
18659;SDS011;9459;50.254;19.014;2023-05-25T03:16:22;10.52;;;8.48;;
18659;SDS011;9459;50.254;19.014;2023-05-25T03:18:51;10.85;;;8.10;;
18659;SDS011;9459;50.254;19.014;2023-05-25T03:21:20;9.93;;;7.65;;
18659;SDS011;9459;50.254;19.014;2023-05-25T03:23:49;11.35;;;8.13;;
18659;SDS011;9459;50.254;19.014;2023-05-25T03:26:17;8.57;;;7.53;;
18659;SDS011;9459;50.254;19.014;2023-05-25T03:28:46;9.70;;;7.95;;
18659;SDS011;9459;50.254;19.014;2023-05-25T03:31:15;8.43;;;7.53;;
18659;SDS011;9459;50.254;19.014;2023-05-25T03:33:45;7.95;;;7.10;;
18659;SDS011;9459;50.254;19.014;2023-05-25T03:36:13;10.98;;;7.90;;
18659;SDS011;9459;50.254;19.014;2023-05-25T03:38:43;10.02;;;7.60;;
18659;SDS011;9459;50.254;19.014;2023-05-25T03:41:11;10.10;;;8.02;;
18659;SDS011;9459;50.254;19.014;2023-05-25T03:43:40;10.80;;;8.57;;
18659;SDS011;9459;50.254;19.014;2023-05-25T03:46:08;10.63;;;8.13;;
18659;SDS011;9459;50.254;19.014;2023-05-25T03:48:37;12.57;;;9.43;;
18659;SDS011;9459;50.254;19.014;2023-05-25T03:51:07;12.68;;;10.18;;
18659;SDS011;9459;50.254;19.014;2023-05-25T03:53:36;13.15;;;10.10;;
18659;SDS011;9459;50.254;19.014;2023-05-25T03:56:04;11.38;;;9.55;;
18659;SDS011;9459;50.254;19.014;2023-05-25T03:58:34;13.80;;;10.25;;
18659;SDS011;9459;50.254;19.014;2023-05-25T04:01:02;14.25;;;9.55;;
18659;SDS011;9459;50.254;19.014;2023-05-25T04:03:31;11.85;;;9.07;;
18659;SDS011;9459;50.254;19.014;2023-05-25T04:06:01;13.90;;;9.75;;
18659;SDS011;9459;50.254;19.014;2023-05-25T04:08:31;14.35;;;10.90;;
18659;SDS011;9459;50.254;19.014;2023-05-25T04:10:59;14.75;;;9.77;;
18659;SDS011;9459;50.254;19.014;2023-05-25T04:13:28;16.13;;;10.98;;
18659;SDS011;9459;50.254;19.014;2023-05-25T04:15:57;16.90;;;11.93;;
18659;SDS011;9459;50.254;19.014;2023-05-25T04:18:25;13.45;;;10.52;;
18659;SDS011;9459;50.254;19.014;2023-05-25T04:20:54;12.45;;;9.77;;
18659;SDS011;9459;50.254;19.014;2023-05-25T04:23:23;13.43;;;10.57;;
18659;SDS011;9459;50.254;19.014;2023-05-25T04:25:53;12.05;;;9.73;;
18659;SDS011;9459;50.254;19.014;2023-05-25T04:28:22;13.73;;;10.30;;
18659;SDS011;9459;50.254;19.014;2023-05-25T04:30:51;15.85;;;9.45;;
18659;SDS011;9459;50.254;19.014;2023-05-25T04:33:23;12.40;;;9.90;;
18659;SDS011;9459;50.254;19.014;2023-05-25T04:35:55;13.13;;;9.95;;
18659;SDS011;9459;50.254;19.014;2023-05-25T04:38:25;11.63;;;9.27;;
18659;SDS011;9459;50.254;19.014;2023-05-25T04:40:55;11.43;;;9.55;;
18659;SDS011;9459;50.254;19.014;2023-05-25T04:43:24;12.57;;;8.93;;
18659;SDS011;9459;50.254;19.014;2023-05-25T04:45:54;13.77;;;10.00;;
18659;SDS011;9459;50.254;19.014;2023-05-25T04:48:22;12.48;;;8.48;;
18659;SDS011;9459;50.254;19.014;2023-05-25T04:50:51;12.65;;;8.20;;
18659;SDS011;9459;50.254;19.014;2023-05-25T04:53:21;10.10;;;8.83;;
18659;SDS011;9459;50.254;19.014;2023-05-25T04:55:50;11.50;;;9.35;;
18659;SDS011;9459;50.254;19.014;2023-05-25T04:58:22;10.80;;;9.05;;
18659;SDS011;9459;50.254;19.014;2023-05-25T05:00:50;11.60;;;8.98;;
18659;SDS011;9459;50.254;19.014;2023-05-25T05:03:19;11.02;;;8.60;;
18659;SDS011;9459;50.254;19.014;2023-05-25T05:05:48;11.95;;;7.93;;
18659;SDS011;9459;50.254;19.014;2023-05-25T05:08:16;12.80;;;9.10;;
18659;SDS011;9459;50.254;19.014;2023-05-25T05:10:45;9.25;;;8.02;;
18659;SDS011;9459;50.254;19.014;2023-05-25T05:13:13;10.85;;;8.18;;
18659;SDS011;9459;50.254;19.014;2023-05-25T05:15:44;10.70;;;7.60;;
18659;SDS011;9459;50.254;19.014;2023-05-25T05:18:14;9.70;;;7.32;;
18659;SDS011;9459;50.254;19.014;2023-05-25T05:20:43;12.82;;;9.07;;
18659;SDS011;9459;50.254;19.014;2023-05-25T05:23:12;10.70;;;8.43;;
18659;SDS011;9459;50.254;19.014;2023-05-25T05:25:40;13.80;;;8.95;;
18659;SDS011;9459;50.254;19.014;2023-05-25T05:28:09;11.80;;;9.63;;
18659;SDS011;9459;50.254;19.014;2023-05-25T05:30:38;14.75;;;10.75;;
18659;SDS011;9459;50.254;19.014;2023-05-25T05:33:08;11.43;;;8.60;;
18659;SDS011;9459;50.254;19.014;2023-05-25T05:35:37;9.88;;;8.18;;
18659;SDS011;9459;50.254;19.014;2023-05-25T05:38:05;11.02;;;7.97;;
18659;SDS011;9459;50.254;19.014;2023-05-25T05:40:35;10.75;;;8.02;;
18659;SDS011;9459;50.254;19.014;2023-05-25T05:43:04;10.80;;;8.07;;
18659;SDS011;9459;50.254;19.014;2023-05-25T05:45:32;10.40;;;7.63;;
18659;SDS011;9459;50.254;19.014;2023-05-25T05:48:01;10.05;;;7.78;;
18659;SDS011;9459;50.254;19.014;2023-05-25T05:50:31;9.60;;;7.35;;
18659;SDS011;9459;50.254;19.014;2023-05-25T05:53:00;11.18;;;8.10;;
18659;SDS011;9459;50.254;19.014;2023-05-25T05:55:29;9.80;;;7.15;;
18659;SDS011;9459;50.254;19.014;2023-05-25T05:57:57;13.88;;;8.20;;
18659;SDS011;9459;50.254;19.014;2023-05-25T06:00:26;10.88;;;8.23;;
18659;SDS011;9459;50.254;19.014;2023-05-25T06:02:55;10.57;;;7.38;;
18659;SDS011;9459;50.254;19.014;2023-05-25T06:05:24;14.70;;;9.30;;
18659;SDS011;9459;50.254;19.014;2023-05-25T06:07:54;10.38;;;7.30;;
18659;SDS011;9459;50.254;19.014;2023-05-25T06:10:22;10.60;;;7.97;;
18659;SDS011;9459;50.254;19.014;2023-05-25T06:12:51;16.75;;;10.60;;
18659;SDS011;9459;50.254;19.014;2023-05-25T06:15:19;14.70;;;11.95;;
18659;SDS011;9459;50.254;19.014;2023-05-25T06:17:48;16.25;;;11.50;;
18659;SDS011;9459;50.254;19.014;2023-05-25T06:20:16;13.68;;;11.27;;
18659;SDS011;9459;50.254;19.014;2023-05-25T06:22:46;14.63;;;10.68;;
18659;SDS011;9459;50.254;19.014;2023-05-25T06:27:48;13.68;;;8.73;;
18659;SDS011;9459;50.254;19.014;2023-05-25T06:30:16;12.48;;;10.05;;
18659;SDS011;9459;50.254;19.014;2023-05-25T06:32:45;11.63;;;8.90;;
18659;SDS011;9459;50.254;19.014;2023-05-25T06:35:14;13.43;;;10.90;;
18659;SDS011;9459;50.254;19.014;2023-05-25T06:37:46;15.23;;;9.90;;
18659;SDS011;9459;50.254;19.014;2023-05-25T06:40:15;15.95;;;11.18;;
18659;SDS011;9459;50.254;19.014;2023-05-25T06:42:45;12.65;;;9.80;;
18659;SDS011;9459;50.254;19.014;2023-05-25T06:45:13;13.20;;;9.57;;
18659;SDS011;9459;50.254;19.014;2023-05-25T06:47:42;13.82;;;9.82;;
18659;SDS011;9459;50.254;19.014;2023-05-25T06:50:11;13.20;;;10.00;;
18659;SDS011;9459;50.254;19.014;2023-05-25T06:52:40;12.52;;;9.77;;
18659;SDS011;9459;50.254;19.014;2023-05-25T06:55:08;15.07;;;10.80;;
18659;SDS011;9459;50.254;19.014;2023-05-25T06:57:37;13.98;;;11.18;;
18659;SDS011;9459;50.254;19.014;2023-05-25T07:00:09;13.85;;;10.00;;
18659;SDS011;9459;50.254;19.014;2023-05-25T07:02:39;14.07;;;9.48;;
18659;SDS011;9459;50.254;19.014;2023-05-25T07:05:08;15.93;;;9.60;;
18659;SDS011;9459;50.254;19.014;2023-05-25T07:07:37;11.07;;;9.68;;
18659;SDS011;9459;50.254;19.014;2023-05-25T07:10:06;15.68;;;11.13;;
18659;SDS011;9459;50.254;19.014;2023-05-25T07:12:36;11.32;;;9.73;;
18659;SDS011;9459;50.254;19.014;2023-05-25T07:15:05;12.70;;;9.70;;
18659;SDS011;9459;50.254;19.014;2023-05-25T07:17:36;12.77;;;10.35;;
18659;SDS011;9459;50.254;19.014;2023-05-25T07:20:05;12.27;;;9.88;;
18659;SDS011;9459;50.254;19.014;2023-05-25T07:22:35;13.18;;;9.50;;
18659;SDS011;9459;50.254;19.014;2023-05-25T07:25:03;13.93;;;10.45;;
18659;SDS011;9459;50.254;19.014;2023-05-25T07:27:33;18.67;;;12.27;;
18659;SDS011;9459;50.254;19.014;2023-05-25T07:30:02;19.17;;;14.95;;
18659;SDS011;9459;50.254;19.014;2023-05-25T07:32:31;23.42;;;14.23;;
18659;SDS011;9459;50.254;19.014;2023-05-25T07:35:01;17.00;;;12.80;;
18659;SDS011;9459;50.254;19.014;2023-05-25T07:37:30;18.35;;;12.32;;
18659;SDS011;9459;50.254;19.014;2023-05-25T07:39:58;17.83;;;13.30;;
18659;SDS011;9459;50.254;19.014;2023-05-25T07:42:27;22.73;;;12.98;;
18659;SDS011;9459;50.254;19.014;2023-05-25T07:44:59;14.18;;;10.23;;
18659;SDS011;9459;50.254;19.014;2023-05-25T07:47:29;16.02;;;11.30;;
18659;SDS011;9459;50.254;19.014;2023-05-25T07:49:57;13.95;;;9.95;;
18659;SDS011;9459;50.254;19.014;2023-05-25T07:52:27;15.35;;;10.80;;
18659;SDS011;9459;50.254;19.014;2023-05-25T07:54:55;14.02;;;10.75;;
18659;SDS011;9459;50.254;19.014;2023-05-25T07:57:24;16.55;;;10.70;;
18659;SDS011;9459;50.254;19.014;2023-05-25T07:59:52;15.40;;;10.98;;
18659;SDS011;9459;50.254;19.014;2023-05-25T08:02:21;19.77;;;11.95;;
18659;SDS011;9459;50.254;19.014;2023-05-25T08:04:50;12.20;;;9.75;;
18659;SDS011;9459;50.254;19.014;2023-05-25T08:07:19;12.88;;;9.65;;
18659;SDS011;9459;50.254;19.014;2023-05-25T08:09:48;12.25;;;9.88;;
18659;SDS011;9459;50.254;19.014;2023-05-25T08:12:18;13.30;;;10.05;;
18659;SDS011;9459;50.254;19.014;2023-05-25T08:14:49;14.90;;;9.93;;
18659;SDS011;9459;50.254;19.014;2023-05-25T08:17:18;12.90;;;9.32;;
18659;SDS011;9459;50.254;19.014;2023-05-25T08:19:46;19.20;;;11.63;;
18659;SDS011;9459;50.254;19.014;2023-05-25T08:22:15;13.32;;;10.38;;
18659;SDS011;9459;50.254;19.014;2023-05-25T08:24:44;11.32;;;9.45;;
18659;SDS011;9459;50.254;19.014;2023-05-25T08:27:14;11.60;;;8.77;;
18659;SDS011;9459;50.254;19.014;2023-05-25T08:29:42;15.82;;;10.50;;
18659;SDS011;9459;50.254;19.014;2023-05-25T08:32:11;14.73;;;12.43;;
18659;SDS011;9459;50.254;19.014;2023-05-25T08:34:39;15.73;;;14.05;;
18659;SDS011;9459;50.254;19.014;2023-05-25T08:37:08;16.23;;;12.98;;
18659;SDS011;9459;50.254;19.014;2023-05-25T08:39:37;17.00;;;13.52;;
18659;SDS011;9459;50.254;19.014;2023-05-25T08:42:06;15.18;;;12.38;;
18659;SDS011;9459;50.254;19.014;2023-05-25T08:44:36;16.88;;;11.93;;
18659;SDS011;9459;50.254;19.014;2023-05-25T08:49:36;16.90;;;11.43;;
18659;SDS011;9459;50.254;19.014;2023-05-25T08:52:05;15.27;;;12.15;;
18659;SDS011;9459;50.254;19.014;2023-05-25T08:54:38;13.55;;;11.27;;
18659;SDS011;9459;50.254;19.014;2023-05-25T08:57:12;17.75;;;12.15;;
18659;SDS011;9459;50.254;19.014;2023-05-25T09:02:18;17.48;;;13.05;;
18659;SDS011;9459;50.254;19.014;2023-05-25T09:04:49;21.05;;;14.50;;
18659;SDS011;9459;50.254;19.014;2023-05-25T09:07:18;17.80;;;14.30;;
18659;SDS011;9459;50.254;19.014;2023-05-25T09:09:47;18.95;;;14.80;;
18659;SDS011;9459;50.254;19.014;2023-05-25T09:12:16;16.83;;;13.93;;
18659;SDS011;9459;50.254;19.014;2023-05-25T09:14:47;19.83;;;16.08;;
18659;SDS011;9459;50.254;19.014;2023-05-25T09:17:16;19.30;;;15.38;;
18659;SDS011;9459;50.254;19.014;2023-05-25T09:19:46;19.98;;;15.75;;
18659;SDS011;9459;50.254;19.014;2023-05-25T09:22:14;18.08;;;15.57;;
18659;SDS011;9459;50.254;19.014;2023-05-25T09:24:43;17.65;;;15.07;;
18659;SDS011;9459;50.254;19.014;2023-05-25T09:27:15;19.13;;;15.90;;
18659;SDS011;9459;50.254;19.014;2023-05-25T09:29:47;22.08;;;16.98;;
18659;SDS011;9459;50.254;19.014;2023-05-25T09:32:16;20.90;;;16.52;;
18659;SDS011;9459;50.254;19.014;2023-05-25T09:34:45;19.80;;;16.85;;
18659;SDS011;9459;50.254;19.014;2023-05-25T09:37:15;21.20;;;17.08;;
18659;SDS011;9459;50.254;19.014;2023-05-25T09:39:46;24.30;;;18.20;;
18659;SDS011;9459;50.254;19.014;2023-05-25T09:42:15;21.70;;;16.80;;
18659;SDS011;9459;50.254;19.014;2023-05-25T09:44:43;22.80;;;18.52;;
18659;SDS011;9459;50.254;19.014;2023-05-25T09:47:13;26.58;;;18.33;;
18659;SDS011;9459;50.254;19.014;2023-05-25T09:49:44;22.83;;;17.77;;
18659;SDS011;9459;50.254;19.014;2023-05-25T09:52:15;24.63;;;17.65;;
18659;SDS011;9459;50.254;19.014;2023-05-25T09:54:44;24.42;;;18.25;;
18659;SDS011;9459;50.254;19.014;2023-05-25T09:57:13;20.90;;;15.98;;
18659;SDS011;9459;50.254;19.014;2023-05-25T09:59:42;21.95;;;16.10;;
18659;SDS011;9459;50.254;19.014;2023-05-25T10:02:11;25.10;;;18.13;;
18659;SDS011;9459;50.254;19.014;2023-05-25T10:04:41;19.98;;;15.68;;
18659;SDS011;9459;50.254;19.014;2023-05-25T10:07:10;18.63;;;15.30;;
18659;SDS011;9459;50.254;19.014;2023-05-25T10:09:41;21.23;;;16.85;;
18659;SDS011;9459;50.254;19.014;2023-05-25T10:12:13;19.45;;;15.38;;
18659;SDS011;9459;50.254;19.014;2023-05-25T10:14:45;20.33;;;14.70;;
18659;SDS011;9459;50.254;19.014;2023-05-25T10:17:17;17.90;;;13.48;;
18659;SDS011;9459;50.254;19.014;2023-05-25T10:19:53;18.77;;;15.13;;
18659;SDS011;9459;50.254;19.014;2023-05-25T10:22:24;18.70;;;15.70;;
18659;SDS011;9459;50.254;19.014;2023-05-25T10:24:56;19.52;;;15.98;;
18659;SDS011;9459;50.254;19.014;2023-05-25T10:27:31;21.00;;;16.27;;
18659;SDS011;9459;50.254;19.014;2023-05-25T10:30:01;19.58;;;15.93;;
18659;SDS011;9459;50.254;19.014;2023-05-25T10:32:30;21.10;;;16.42;;
18659;SDS011;9459;50.254;19.014;2023-05-25T10:35:01;24.38;;;17.67;;
18659;SDS011;9459;50.254;19.014;2023-05-25T10:37:31;22.77;;;17.17;;
18659;SDS011;9459;50.254;19.014;2023-05-25T10:40:01;19.88;;;16.83;;
18659;SDS011;9459;50.254;19.014;2023-05-25T10:42:29;18.60;;;15.93;;
18659;SDS011;9459;50.254;19.014;2023-05-25T10:45:00;26.17;;;16.65;;
18659;SDS011;9459;50.254;19.014;2023-05-25T10:47:29;22.20;;;14.98;;
18659;SDS011;9459;50.254;19.014;2023-05-25T10:49:58;22.52;;;16.75;;
18659;SDS011;9459;50.254;19.014;2023-05-25T10:52:30;22.20;;;17.88;;
18659;SDS011;9459;50.254;19.014;2023-05-25T10:55:00;21.38;;;18.80;;
18659;SDS011;9459;50.254;19.014;2023-05-25T10:57:31;23.92;;;21.13;;
18659;SDS011;9459;50.254;19.014;2023-05-25T11:00:00;23.73;;;18.73;;
18659;SDS011;9459;50.254;19.014;2023-05-25T11:02:48;22.92;;;18.08;;
18659;SDS011;9459;50.254;19.014;2023-05-25T11:05:29;22.73;;;17.65;;
18659;SDS011;9459;50.254;19.014;2023-05-25T11:08:04;20.30;;;17.17;;
18659;SDS011;9459;50.254;19.014;2023-05-25T11:10:41;18.80;;;16.33;;
18659;SDS011;9459;50.254;19.014;2023-05-25T11:13:23;21.13;;;16.35;;
18659;SDS011;9459;50.254;19.014;2023-05-25T11:16:15;18.85;;;15.82;;
18659;SDS011;9459;50.254;19.014;2023-05-25T11:18:47;18.10;;;14.60;;
18659;SDS011;9459;50.254;19.014;2023-05-25T11:21:21;14.43;;;12.82;;
18659;SDS011;9459;50.254;19.014;2023-05-25T11:24:11;16.10;;;13.02;;
18659;SDS011;9459;50.254;19.014;2023-05-25T11:26:51;20.55;;;13.48;;
18659;SDS011;9459;50.254;19.014;2023-05-25T11:29:25;16.80;;;14.30;;
18659;SDS011;9459;50.254;19.014;2023-05-25T11:31:58;17.60;;;14.02;;
18659;SDS011;9459;50.254;19.014;2023-05-25T11:34:27;13.80;;;12.30;;
18659;SDS011;9459;50.254;19.014;2023-05-25T11:36:58;17.40;;;14.13;;
18659;SDS011;9459;50.254;19.014;2023-05-25T11:39:31;20.17;;;15.35;;
18659;SDS011;9459;50.254;19.014;2023-05-25T11:42:03;19.17;;;14.65;;
18659;SDS011;9459;50.254;19.014;2023-05-25T11:44:34;15.93;;;13.25;;
18659;SDS011;9459;50.254;19.014;2023-05-25T11:47:05;15.45;;;13.50;;
18659;SDS011;9459;50.254;19.014;2023-05-25T11:49:38;15.95;;;13.30;;
18659;SDS011;9459;50.254;19.014;2023-05-25T11:52:07;13.45;;;12.05;;
18659;SDS011;9459;50.254;19.014;2023-05-25T11:54:38;13.70;;;11.88;;
18659;SDS011;9459;50.254;19.014;2023-05-25T11:57:12;14.27;;;12.55;;
18659;SDS011;9459;50.254;19.014;2023-05-25T11:59:46;15.05;;;11.43;;
18659;SDS011;9459;50.254;19.014;2023-05-25T12:02:15;16.75;;;12.30;;
18659;SDS011;9459;50.254;19.014;2023-05-25T12:04:51;15.15;;;12.38;;
18659;SDS011;9459;50.254;19.014;2023-05-25T12:07:21;16.08;;;13.63;;
18659;SDS011;9459;50.254;19.014;2023-05-25T12:09:57;18.42;;;13.88;;
18659;SDS011;9459;50.254;19.014;2023-05-25T12:12:36;14.95;;;12.57;;
18659;SDS011;9459;50.254;19.014;2023-05-25T12:15:09;13.70;;;10.40;;
18659;SDS011;9459;50.254;19.014;2023-05-25T12:17:39;13.63;;;11.05;;
18659;SDS011;9459;50.254;19.014;2023-05-25T12:20:10;12.52;;;10.88;;
18659;SDS011;9459;50.254;19.014;2023-05-25T12:22:41;11.65;;;9.10;;
18659;SDS011;9459;50.254;19.014;2023-05-25T12:25:12;12.63;;;11.30;;
18659;SDS011;9459;50.254;19.014;2023-05-25T12:30:10;14.77;;;11.68;;
18659;SDS011;9459;50.254;19.014;2023-05-25T12:32:58;13.35;;;10.48;;
18659;SDS011;9459;50.254;19.014;2023-05-25T12:35:31;11.57;;;9.55;;
18659;SDS011;9459;50.254;19.014;2023-05-25T12:38:12;10.00;;;8.73;;
18659;SDS011;9459;50.254;19.014;2023-05-25T12:40:43;10.18;;;8.23;;
18659;SDS011;9459;50.254;19.014;2023-05-25T12:43:12;11.60;;;8.80;;
18659;SDS011;9459;50.254;19.014;2023-05-25T12:45:43;12.05;;;10.57;;
18659;SDS011;9459;50.254;19.014;2023-05-25T12:48:12;11.18;;;9.43;;
18659;SDS011;9459;50.254;19.014;2023-05-25T12:50:55;17.63;;;9.40;;
18659;SDS011;9459;50.254;19.014;2023-05-25T12:53:24;11.90;;;9.70;;
18659;SDS011;9459;50.254;19.014;2023-05-25T12:56:02;11.87;;;9.83;;
18659;SDS011;9459;50.254;19.014;2023-05-25T12:58:32;8.90;;;8.00;;
18659;SDS011;9459;50.254;19.014;2023-05-25T13:01:01;13.85;;;9.48;;
18659;SDS011;9459;50.254;19.014;2023-05-25T13:03:29;11.13;;;8.52;;
18659;SDS011;9459;50.254;19.014;2023-05-25T13:05:58;10.18;;;8.18;;
18659;SDS011;9459;50.254;19.014;2023-05-25T13:08:28;12.10;;;9.98;;
18659;SDS011;9459;50.254;19.014;2023-05-25T13:10:57;10.73;;;8.35;;
18659;SDS011;9459;50.254;19.014;2023-05-25T13:13:27;13.13;;;8.50;;
18659;SDS011;9459;50.254;19.014;2023-05-25T13:15:56;11.65;;;9.23;;
18659;SDS011;9459;50.254;19.014;2023-05-25T13:18:25;12.20;;;9.63;;
18659;SDS011;9459;50.254;19.014;2023-05-25T13:20:53;13.00;;;10.00;;
18659;SDS011;9459;50.254;19.014;2023-05-25T13:23:23;10.95;;;9.38;;
18659;SDS011;9459;50.254;19.014;2023-05-25T13:25:52;10.55;;;9.45;;
18659;SDS011;9459;50.254;19.014;2023-05-25T13:28:21;10.05;;;8.27;;
18659;SDS011;9459;50.254;19.014;2023-05-25T13:30:51;10.80;;;9.52;;
18659;SDS011;9459;50.254;19.014;2023-05-25T13:33:19;12.52;;;11.15;;
18659;SDS011;9459;50.254;19.014;2023-05-25T13:35:48;10.07;;;8.93;;
18659;SDS011;9459;50.254;19.014;2023-05-25T13:38:24;13.25;;;10.45;;
18659;SDS011;9459;50.254;19.014;2023-05-25T13:40:55;10.82;;;9.00;;
18659;SDS011;9459;50.254;19.014;2023-05-25T13:43:24;12.82;;;10.27;;
18659;SDS011;9459;50.254;19.014;2023-05-25T13:45:54;12.70;;;9.93;;
18659;SDS011;9459;50.254;19.014;2023-05-25T13:48:24;13.13;;;10.55;;
18659;SDS011;9459;50.254;19.014;2023-05-25T13:50:53;12.02;;;9.90;;
18659;SDS011;9459;50.254;19.014;2023-05-25T13:53:22;12.35;;;10.82;;
18659;SDS011;9459;50.254;19.014;2023-05-25T13:55:51;10.73;;;9.50;;
18659;SDS011;9459;50.254;19.014;2023-05-25T13:58:20;13.63;;;10.20;;
18659;SDS011;9459;50.254;19.014;2023-05-25T14:00:50;11.75;;;10.23;;
18659;SDS011;9459;50.254;19.014;2023-05-25T14:03:21;11.82;;;9.00;;
18659;SDS011;9459;50.254;19.014;2023-05-25T14:05:49;12.25;;;9.70;;
18659;SDS011;9459;50.254;19.014;2023-05-25T14:08:19;9.77;;;8.75;;
18659;SDS011;9459;50.254;19.014;2023-05-25T14:10:49;12.48;;;9.70;;
18659;SDS011;9459;50.254;19.014;2023-05-25T14:13:17;12.70;;;10.90;;
18659;SDS011;9459;50.254;19.014;2023-05-25T14:15:46;11.23;;;10.02;;
18659;SDS011;9459;50.254;19.014;2023-05-25T14:18:14;12.43;;;10.60;;
18659;SDS011;9459;50.254;19.014;2023-05-25T14:20:45;13.45;;;10.73;;
18659;SDS011;9459;50.254;19.014;2023-05-25T14:23:13;13.20;;;11.15;;
18659;SDS011;9459;50.254;19.014;2023-05-25T14:25:45;11.57;;;10.38;;
18659;SDS011;9459;50.254;19.014;2023-05-25T14:28:15;13.25;;;10.75;;
18659;SDS011;9459;50.254;19.014;2023-05-25T14:30:44;13.77;;;11.48;;
18659;SDS011;9459;50.254;19.014;2023-05-25T14:33:12;13.60;;;11.05;;
18659;SDS011;9459;50.254;19.014;2023-05-25T14:35:44;14.45;;;11.13;;
18659;SDS011;9459;50.254;19.014;2023-05-25T14:38:13;13.05;;;10.38;;
18659;SDS011;9459;50.254;19.014;2023-05-25T14:40:42;13.88;;;10.27;;
18659;SDS011;9459;50.254;19.014;2023-05-25T14:43:11;13.80;;;10.63;;
18659;SDS011;9459;50.254;19.014;2023-05-25T14:45:40;13.65;;;11.52;;
18659;SDS011;9459;50.254;19.014;2023-05-25T14:48:09;14.15;;;11.85;;
18659;SDS011;9459;50.254;19.014;2023-05-25T14:50:44;14.27;;;10.88;;
18659;SDS011;9459;50.254;19.014;2023-05-25T14:53:12;19.05;;;14.63;;
18659;SDS011;9459;50.254;19.014;2023-05-25T14:55:42;19.20;;;15.52;;
18659;SDS011;9459;50.254;19.014;2023-05-25T14:58:11;19.77;;;15.15;;